createdAt,value
2023-03-31T00:00:46.676Z,38.08
2023-03-31T00:03:21.709Z,75.88
2023-03-31T00:05:48.821Z,86.47
2023-03-31T00:08:15.573Z,111.00
2023-03-31T00:10:46.572Z,146.90
2023-03-31T00:13:13.703Z,102.80
2023-03-31T00:15:41.177Z,111.88
2023-03-31T00:18:07.909Z,193.35
2023-03-31T00:20:37.953Z,351.50
2023-03-31T00:23:10.661Z,398.20
2023-03-31T00:25:41.748Z,377.70
2023-03-31T00:28:08.475Z,186.40
2023-03-31T00:30:35.296Z,225.68
2023-03-31T00:33:02.530Z,305.60
2023-03-31T00:35:29.325Z,189.07
2023-03-31T00:37:57.892Z,259.75
2023-03-31T01:28:44.407Z,233.18
2023-03-31T01:31:38.874Z,505.65
2023-03-31T01:45:27.312Z,1032.85
2023-03-31T02:08:22.965Z,480.30
2023-03-31T03:22:17.309Z,390.80
2023-03-31T10:36:36.418Z,1078.20
2023-03-31T14:16:35.026Z,3.00
2023-03-31T14:19:27.253Z,154.48
2023-03-31T14:22:18.009Z,3.42
2023-03-31T14:25:03.077Z,2.00
2023-03-31T14:27:51.774Z,3.38
2023-03-31T14:30:23.663Z,3.30
2023-03-31T14:32:59.375Z,3.35
2023-03-31T14:35:30.132Z,2.65
2023-03-31T14:37:57.400Z,3.42
2023-03-31T14:40:25.311Z,2.33
2023-03-31T14:42:52.632Z,2.45
2023-03-31T14:45:25.486Z,2.58
2023-03-31T14:48:09.489Z,3.90
2023-03-31T14:50:36.564Z,3.67
2023-03-31T14:53:04.687Z,4.70
2023-03-31T14:55:54.311Z,4.68
2023-03-31T14:58:31.760Z,3.97
2023-03-31T15:00:59.335Z,3.88
2023-03-31T15:03:27.513Z,3.65
2023-03-31T15:06:02.436Z,4.13
2023-03-31T15:08:31.497Z,5.32
2023-03-31T15:11:13.159Z,4.82
2023-03-31T15:13:56.617Z,2.90
2023-03-31T15:16:32.622Z,3.30
2023-03-31T15:19:01.582Z,4.60
2023-03-31T15:21:31.675Z,4.20
2023-03-31T15:23:59.021Z,4.80
2023-03-31T15:26:40.766Z,4.45
2023-03-31T15:29:21.870Z,5.72
2023-03-31T15:31:49.096Z,3.45
2023-03-31T15:34:33.105Z,4.60
2023-03-31T15:37:01.605Z,10.38
2023-03-31T15:39:31.553Z,9.35
2023-03-31T15:42:01.395Z,8.68
2023-03-31T15:44:40.508Z,7.57
2023-03-31T15:47:15.664Z,10.32
2023-03-31T15:50:04.524Z,8.27
2023-03-31T15:52:36.153Z,7.90
2023-03-31T15:55:23.054Z,6.25
2023-03-31T15:57:51.482Z,10.53
2023-03-31T16:00:33.201Z,6.13
2023-03-31T16:03:12.586Z,7.70
2023-03-31T16:05:58.472Z,8.30
2023-03-31T16:08:32.391Z,5.75
2023-03-31T16:11:04.098Z,7.53
2023-03-31T16:13:32.511Z,6.97
2023-03-31T16:15:59.882Z,9.57
2023-03-31T16:18:29.219Z,7.43
2023-03-31T16:20:59.099Z,7.03
2023-03-31T16:23:30.224Z,8.63
2023-03-31T16:25:57.408Z,8.07
2023-03-31T16:28:27.638Z,9.13
2023-03-31T16:30:54.722Z,6.05
2023-03-31T16:33:23.537Z,6.32
2023-03-31T16:35:53.710Z,7.88
2023-03-31T16:38:24.864Z,7.55
2023-03-31T16:40:54.652Z,7.03
2023-03-31T16:43:31.251Z,9.43
2023-03-31T16:46:00.309Z,7.33
2023-03-31T16:48:29.100Z,7.47
2023-03-31T16:50:57.478Z,6.25
2023-03-31T16:53:27.841Z,6.85
2023-03-31T16:55:55.498Z,6.93
2023-03-31T16:58:24.030Z,7.97
2023-03-31T17:00:51.679Z,7.22
2023-03-31T17:03:19.163Z,9.25
2023-03-31T17:05:50.143Z,7.33
2023-03-31T17:08:17.132Z,6.38
2023-03-31T17:10:51.983Z,6.55
2023-03-31T17:13:19.252Z,7.23
2023-03-31T17:15:46.204Z,7.00
2023-03-31T17:18:13.646Z,7.22
2023-03-31T17:20:40.780Z,7.25
2023-03-31T17:23:07.787Z,6.60
2023-03-31T17:25:36.160Z,8.18
2023-03-31T17:28:04.234Z,6.80
2023-03-31T17:30:32.068Z,8.60
2023-03-31T17:32:58.847Z,8.30
2023-03-31T17:35:25.940Z,5.95
2023-03-31T17:37:53.892Z,8.77
2023-03-31T17:40:21.889Z,6.40
2023-03-31T17:42:50.019Z,7.15
2023-03-31T17:45:16.797Z,8.30
2023-03-31T17:47:45.070Z,6.55
2023-03-31T17:50:12.695Z,7.22
2023-03-31T17:52:39.508Z,7.53
2023-03-31T17:55:07.096Z,8.15
2023-03-31T17:57:34.826Z,7.20
2023-03-31T18:00:01.700Z,7.82
2023-03-31T18:02:40.594Z,8.48
2023-03-31T18:05:08.399Z,5.68
2023-03-31T18:07:36.404Z,8.30
2023-03-31T18:10:06.854Z,8.40
2023-03-31T18:12:34.899Z,7.82
2023-03-31T18:15:02.887Z,8.43
2023-03-31T18:17:30.842Z,6.55
2023-03-31T18:19:59.154Z,6.28
2023-03-31T18:22:26.325Z,7.10
2023-03-31T18:24:53.046Z,7.43
2023-03-31T18:27:19.823Z,7.18
2023-03-31T18:29:46.530Z,8.32
2023-03-31T18:32:13.593Z,6.90
2023-03-31T18:34:40.724Z,6.35
2023-03-31T18:37:07.833Z,8.15
2023-03-31T18:39:34.706Z,6.38
2023-03-31T18:42:01.488Z,6.75
2023-03-31T18:44:28.207Z,6.35
2023-03-31T18:46:55.037Z,6.32
2023-03-31T18:49:22.484Z,6.77
2023-03-31T18:51:49.285Z,5.93
2023-03-31T18:54:16.906Z,6.40
2023-03-31T18:56:43.786Z,6.70
2023-03-31T18:59:10.634Z,6.88
2023-03-31T19:01:40.015Z,7.57
2023-03-31T19:04:07.995Z,7.65
2023-03-31T19:06:35.414Z,7.10
2023-03-31T19:09:02.420Z,5.97
2023-03-31T19:11:29.260Z,5.85
2023-03-31T19:13:56.397Z,7.00
2023-03-31T19:16:24.685Z,6.65
2023-03-31T19:18:51.689Z,7.85
2023-03-31T19:21:18.508Z,6.65
2023-03-31T19:23:45.523Z,5.63
2023-03-31T19:26:16.256Z,6.57
2023-03-31T19:28:43.105Z,7.20
2023-03-31T19:31:10.874Z,6.43
2023-03-31T19:33:37.708Z,7.60
2023-03-31T19:36:04.708Z,5.63
2023-03-31T19:38:34.717Z,5.83
2023-03-31T19:41:01.565Z,6.43
2023-03-31T19:43:30.651Z,6.65
2023-03-31T19:45:58.325Z,7.53
2023-03-31T19:48:26.512Z,6.80
2023-03-31T19:50:56.188Z,7.47
2023-03-31T19:53:23.637Z,5.45
2023-03-31T19:56:07.987Z,5.25
2023-03-31T19:58:36.489Z,5.77
2023-03-31T20:01:17.746Z,8.13
2023-03-31T20:03:45.217Z,8.57
2023-03-31T20:06:14.086Z,7.40
2023-03-31T20:08:42.529Z,5.80
2023-03-31T20:11:12.189Z,7.38
2023-03-31T20:13:39.880Z,8.35
2023-03-31T20:16:09.321Z,6.72
2023-03-31T20:18:37.106Z,6.47
2023-03-31T20:21:13.037Z,6.22
2023-03-31T20:23:41.030Z,6.97
2023-03-31T20:26:11.036Z,6.07
2023-03-31T20:28:38.868Z,6.30
2023-03-31T20:31:08.024Z,5.50
2023-03-31T20:33:34.870Z,8.32
2023-03-31T20:36:14.002Z,7.60
2023-03-31T20:38:43.520Z,6.70
2023-03-31T20:41:10.901Z,7.15
2023-03-31T20:43:38.147Z,6.18
2023-03-31T20:46:07.411Z,5.53
2023-03-31T20:48:46.491Z,8.65
2023-03-31T20:51:17.226Z,7.55
2023-03-31T20:53:46.645Z,6.28
2023-03-31T20:56:22.631Z,7.00
2023-03-31T20:58:50.737Z,4.65
2023-03-31T21:01:18.193Z,6.43
2023-03-31T21:03:46.926Z,6.80
2023-03-31T21:06:15.495Z,6.25
2023-03-31T21:08:45.448Z,4.85
2023-03-31T21:11:15.643Z,5.28
2023-03-31T21:13:44.698Z,5.28
2023-03-31T21:16:12.355Z,4.53
2023-03-31T21:18:39.214Z,7.28
2023-03-31T21:21:08.420Z,6.05
2023-03-31T21:23:35.608Z,6.33
2023-03-31T21:26:04.004Z,5.30
2023-03-31T21:28:33.684Z,5.65
2023-03-31T21:31:03.981Z,5.03
2023-03-31T21:33:32.339Z,5.97
2023-03-31T21:35:59.224Z,5.97
2023-03-31T21:38:27.907Z,4.65
2023-03-31T21:40:58.328Z,3.95
2023-03-31T21:43:25.912Z,5.40
2023-03-31T21:45:58.056Z,5.05
2023-03-31T21:48:26.285Z,5.25
2023-03-31T21:50:54.751Z,4.90
2023-03-31T21:53:22.862Z,5.37
2023-03-31T21:55:55.474Z,4.57
2023-03-31T21:58:25.196Z,4.47
2023-03-31T22:00:52.482Z,4.63
2023-03-31T22:03:27.185Z,5.10
2023-03-31T22:05:56.617Z,6.30
2023-03-31T22:08:23.864Z,5.25
2023-03-31T22:10:51.951Z,4.05
2023-03-31T22:13:21.084Z,4.40
2023-03-31T22:15:48.333Z,4.00
2023-03-31T22:18:16.934Z,5.13
2023-03-31T22:20:45.015Z,3.40
2023-03-31T22:23:11.909Z,3.58
2023-03-31T22:25:38.672Z,3.50
2023-03-31T22:28:07.265Z,6.60
2023-03-31T22:30:34.465Z,4.43
2023-03-31T22:33:01.353Z,4.30
2023-03-31T22:35:28.882Z,4.38
2023-03-31T22:37:55.607Z,4.20
2023-03-31T22:40:23.096Z,3.95
2023-03-31T22:42:49.814Z,3.33
2023-03-31T22:45:16.726Z,3.63
2023-03-31T22:47:43.684Z,4.07
2023-03-31T22:50:11.200Z,4.43
2023-03-31T22:52:38.203Z,4.30
2023-03-31T22:55:06.131Z,4.85
2023-03-31T22:57:33.588Z,2.85
2023-03-31T23:00:00.677Z,3.83
2023-03-31T23:02:27.587Z,3.33
2023-03-31T23:04:54.568Z,3.28
2023-03-31T23:07:22.180Z,3.17
2023-03-31T23:09:49.101Z,2.97
2023-03-31T23:12:15.924Z,3.73
2023-03-31T23:14:42.696Z,2.63
2023-03-31T23:17:09.592Z,3.33
2023-03-31T23:19:37.701Z,2.92
2023-03-31T23:22:05.688Z,4.88
2023-03-31T23:24:32.636Z,2.97
2023-03-31T23:26:59.406Z,3.38
2023-03-31T23:29:26.344Z,4.22
2023-03-31T23:31:53.321Z,2.63
2023-03-31T23:34:20.154Z,2.67
2023-03-31T23:36:46.937Z,3.50
2023-03-31T23:39:13.737Z,3.40
2023-03-31T23:41:40.518Z,4.10
2023-03-31T23:44:07.269Z,4.18
2023-03-31T23:46:34.183Z,4.63
2023-03-31T23:49:02.623Z,3.77
2023-03-31T23:51:29.509Z,3.77
2023-03-31T23:53:58.366Z,3.97
2023-03-31T23:56:26.983Z,4.57
2023-03-31T23:58:53.938Z,5.63
